Disclaimer

Please do not use the information listed here in-flight or in-navigation, as they are not provided to us by the airports but are provided by volunteers, so they might be outdated.

Search


Regions


Airport information page

Radio informations:
Automatic Terminal Information Service (ATIS) - 127.4 MHz

Airport informations:
Latitude: 45° 37' 24.25" N
Longitude: 126° 15' 01.18" E
Elevation: 457 feet - 139 meters
Operating hours: Remarks
Operating agency: Civil government, landing fees and diplomatic clearance may be required
Timezone: UTC+8
Fuel: N/A

Runway information:
05/23 - 10500 x 148 feet< - >3200 x 45 meters

Recent METARs:
ZYHB 190300Z VRB01MPS CAVOK M05/M18 Q1024 NOSIG
ZYHB 190300Z VRB01MPS CAVOK M05/M18 Q1024 NOSIG
ZYHB 190400Z 34002MPS 290V020 CAVOK M05/M18 Q1023 NOSIG

Airport on the map: